Time;durP1;ratioP1;P1;durP2;ratioP2;P2;SDS_P1;SDS_P2;PMS_P1;PMS_P2;Temp;Humidity;BMP_temperature;BMP_pressure;BME280_temperature;BME280_humidity;BME280_pressure;Samples;Min_cycle;Max_cycle;Signal;HPM_P1;HPM_P2
2022/12/13 00:01:49;;;;;;;22.73;11.18;;;;;;;-5.27;90.16;101350.72;6243782;22;20025;-79
2022/12/13 00:04:18;;;;;;;24.52;11.38;;;;;;;-5.22;90.09;101347.16;6220616;22;20044;-79
2022/12/13 00:06:45;;;;;;;23.73;12.10;;;;;;;-5.20;89.85;101353.56;6219167;23;20032;-79
2022/12/13 00:09:13;;;;;;;19.85;10.98;;;;;;;-5.19;90.07;101346.50;6220387;22;20021;-79
2022/12/13 00:11:41;;;;;;;24.70;11.55;;;;;;;-5.19;89.77;101343.91;6194084;23;20035;-79
2022/12/13 00:14:07;;;;;;;20.80;11.80;;;;;;;-5.19;89.97;101342.06;6221167;22;20017;-79
2022/12/13 00:16:34;;;;;;;32.47;12.93;;;;;;;-5.21;89.81;101340.91;6220740;23;20017;-79
2022/12/13 00:19:01;;;;;;;31.77;12.57;;;;;;;-5.25;89.70;101343.38;6220233;22;20076;-77
2022/12/13 00:21:29;;;;;;;21.23;10.93;;;;;;;-5.25;90.01;101338.16;6219184;23;20426;-80
2022/12/13 00:23:57;;;;;;;22.70;11.77;;;;;;;-5.25;89.69;101337.41;6221132;22;20017;-80
2022/12/13 00:26:31;;;;;;;24.10;11.07;;;;;;;-5.26;89.78;101333.28;6220810;22;20062;-80
2022/12/13 00:29:03;;;;;;;23.67;11.18;;;;;;;-5.26;89.56;101328.88;6244525;22;20502;-80
2022/12/13 00:31:32;;;;;;;23.65;12.23;;;;;;;-5.31;89.63;101331.66;6218517;23;20024;-80
2022/12/13 00:34:19;;;;;;;28.48;12.57;;;;;;;-5.41;89.71;101332.03;6220498;23;20024;-80
2022/12/13 00:36:47;;;;;;;25.35;12.48;;;;;;;-5.41;89.70;101332.78;6218982;23;20510;-80
2022/12/13 00:39:15;;;;;;;27.50;13.77;;;;;;;-5.43;89.76;101323.78;6218711;23;20013;-80
2022/12/13 00:41:43;;;;;;;25.95;12.88;;;;;;;-5.41;89.71;101327.59;6220817;22;20128;-81
2022/12/13 00:44:11;;;;;;;28.90;13.25;;;;;;;-5.37;89.92;101317.34;6218875;23;20017;-79
2022/12/13 00:46:39;;;;;;;23.17;12.07;;;;;;;-5.38;89.45;101324.38;6218576;23;20017;-80
2022/12/13 00:49:06;;;;;;;28.58;13.77;;;;;;;-5.35;89.70;101314.44;6218431;23;20447;-80
2022/12/13 00:51:33;;;;;;;26.90;12.85;;;;;;;-5.31;90.07;101313.47;6218882;23;20080;-80
2022/12/13 00:54:00;;;;;;;26.60;12.60;;;;;;;-5.27;89.66;101311.78;6218525;23;20439;-80
2022/12/13 00:56:30;;;;;;;26.58;12.00;;;;;;;-5.26;89.49;101317.72;6219103;23;20013;-80
2022/12/13 00:58:57;;;;;;;26.95;12.77;;;;;;;-5.26;89.06;101315.88;6218817;23;20481;-81
2022/12/13 01:01:26;;;;;;;20.80;11.75;;;;;;;-5.26;89.38;101315.88;6218224;23;20096;-79
2022/12/13 01:03:55;;;;;;;20.63;11.23;;;;;;;-5.21;89.18;101304.56;6218883;23;20075;-79
2022/12/13 01:06:27;;;;;;;21.00;11.32;;;;;;;-5.18;89.18;101306.47;6220233;22;20013;-79
2022/12/13 01:08:53;;;;;;;28.05;12.38;;;;;;;-5.20;88.87;101311.25;6244027;22;20039;-79
2022/12/13 01:11:20;;;;;;;22.30;10.75;;;;;;;-5.23;88.57;101310.06;6220110;22;20021;-80
2022/12/13 01:13:47;;;;;;;19.42;11.43;;;;;;;-5.23;88.49;101315.25;6218448;23;20013;-79
2022/12/13 01:16:13;;;;;;;25.30;12.13;;;;;;;-5.25;88.31;101303.66;6218747;23;20105;-79
2022/12/13 01:18:40;;;;;;;24.67;12.38;;;;;;;-5.33;88.06;101317.47;6220353;22;20071;-79
2022/12/13 01:21:16;;;;;;;26.63;13.02;;;;;;;-5.43;88.10;101318.59;6220218;23;20462;-79
2022/12/13 01:23:43;;;;;;;22.77;11.07;;;;;;;-5.47;88.03;101317.72;6219163;23;20436;-79
2022/12/13 01:26:15;;;;;;;23.60;11.32;;;;;;;-5.53;87.87;101313.78;6218428;23;20500;-80
2022/12/13 01:28:42;;;;;;;19.25;10.60;;;;;;;-5.52;88.00;101315.31;6219440;22;20492;-80
2022/12/13 01:31:12;;;;;;;24.65;12.02;;;;;;;-5.54;88.03;101310.44;6219908;22;20021;-80
2022/12/13 01:33:40;;;;;;;21.60;12.23;;;;;;;-5.59;87.96;101309.84;6220337;22;20013;-80
2022/12/13 01:36:10;;;;;;;26.95;12.70;;;;;;;-5.59;87.97;101305.44;6219993;23;20013;-80
2022/12/13 01:38:37;;;;;;;20.95;10.60;;;;;;;-5.56;87.69;101304.03;6220222;22;20017;-80
2022/12/13 01:41:05;;;;;;;21.58;11.65;;;;;;;-5.55;87.62;101308.16;6220088;23;20427;-80
2022/12/13 01:43:43;;;;;;;23.88;11.63;;;;;;;-5.59;87.74;101302.06;6219875;22;20072;-79
2022/12/13 01:46:11;;;;;;;26.00;12.38;;;;;;;-5.59;87.71;101305.44;6218262;23;20017;-80
2022/12/13 01:48:51;;;;;;;27.27;12.55;;;;;;;-5.59;87.66;101300.25;6218526;23;20025;-80
2022/12/13 01:51:24;;;;;;;26.67;12.27;;;;;;;-5.64;87.40;101297.84;6220141;23;20342;-80
2022/12/13 01:53:52;;;;;;;27.98;12.02;;;;;;;-5.67;87.61;101302.91;6221119;22;20451;-79
2022/12/13 01:56:23;;;;;;;24.25;12.15;;;;;;;-5.68;87.77;101306.59;6219161;23;20013;-80
2022/12/13 01:58:52;;;;;;;19.65;11.07;;;;;;;-5.63;87.65;101309.00;6245596;22;20021;-79
2022/12/13 02:01:19;;;;;;;28.05;12.38;;;;;;;-5.60;87.52;101306.53;6220529;23;20031;-79
2022/12/13 02:03:46;;;;;;;28.48;12.82;;;;;;;-5.56;87.69;101306.63;6219956;23;20021;-79
2022/12/13 02:06:18;;;;;;;24.63;12.05;;;;;;;-5.58;87.46;101306.94;6219323;23;20017;-79
2022/12/13 02:08:45;;;;;;;26.70;12.57;;;;;;;-5.54;87.13;101305.25;6219492;23;20018;-79
2022/12/13 02:11:13;;;;;;;23.65;11.55;;;;;;;-5.52;87.18;101305.69;6218379;23;20025;-78
2022/12/13 02:13:40;;;;;;;21.67;11.00;;;;;;;-5.51;87.21;101304.63;6220030;22;20027;-79
2022/12/13 02:16:21;;;;;;;24.95;12.32;;;;;;;-5.53;86.88;101300.81;6218614;23;20013;-78
2022/12/13 02:19:10;;;;;;;23.85;10.63;;;;;;;-5.61;86.75;101306.84;6219710;22;20497;-79
2022/12/13 02:22:10;;;;;;;23.73;12.65;;;;;;;-5.66;86.95;101307.78;6218441;23;20025;-78
2022/12/13 02:24:49;;;;;;;32.90;12.70;;;;;;;-5.73;87.09;101310.88;6218547;23;20048;-78
2022/12/13 02:27:36;;;;;;;23.08;12.45;;;;;;;-5.77;86.59;101311.81;6219468;22;20050;-79
2022/12/13 02:30:28;;;;;;;22.75;11.80;;;;;;;-5.77;86.93;101307.38;6217851;23;20638;-79
2022/12/13 02:33:10;;;;;;;24.58;12.80;;;;;;;-5.75;86.48;101309.66;6218377;23;20088;-78
2022/12/13 02:35:58;;;;;;;20.58;11.98;;;;;;;-5.81;86.72;101303.16;6243954;22;20018;-79
2022/12/13 02:38:59;;;;;;;18.88;11.15;;;;;;;-5.82;86.77;101301.63;6220326;22;20021;-79
2022/12/13 02:41:45;;;;;;;19.37;10.93;;;;;;;-5.86;86.98;101293.72;6202893;23;20101;-78
2022/12/13 02:44:27;;;;;;;20.80;10.68;;;;;;;-5.84;86.94;101291.56;6217907;23;20048;-79
2022/12/13 02:46:53;;;;;;;19.67;11.70;;;;;;;-5.82;86.72;101281.63;6220215;22;20347;-78
2022/12/13 02:49:22;;;;;;;18.90;10.43;;;;;;;-5.84;86.30;101285.63;6219525;23;20024;-78
2022/12/13 02:51:51;;;;;;;23.98;10.82;;;;;;;-5.87;86.44;101281.06;6219785;22;20017;-78
2022/12/13 02:54:17;;;;;;;26.20;12.07;;;;;;;-5.90;86.42;101285.06;6219618;23;20021;-79
2022/12/13 02:56:55;;;;;;;27.58;11.55;;;;;;;-5.91;86.26;101287.97;6218019;23;20040;-79
2022/12/13 02:59:28;;;;;;;30.83;12.20;;;;;;;-5.90;86.63;101279.13;6219934;22;20013;-79
2022/12/13 03:02:17;;;;;;;20.83;12.40;;;;;;;-5.93;86.23;101284.94;6219828;22;20092;-79
2022/12/13 03:08:21;;;;;;;18.73;10.00;;;;;;;-6.00;86.68;101282.88;6219835;23;20158;-79
2022/12/13 03:11:09;;;;;;;18.92;10.18;;;;;;;-5.98;86.24;101280.69;6219584;22;20543;-79
2022/12/13 03:13:48;;;;;;;22.38;10.45;;;;;;;-5.96;86.12;101281.13;6219773;22;20017;-79
2022/12/13 03:16:23;;;;;;;24.13;10.45;;;;;;;-5.93;86.53;101275.31;6217986;23;20017;-79
2022/12/13 03:18:52;;;;;;;23.23;11.05;;;;;;;-5.90;86.31;101277.28;6219238;23;20362;-79
2022/12/13 03:21:21;;;;;;;23.08;10.05;;;;;;;-5.86;86.29;101275.56;6219872;22;20013;-79
2022/12/13 03:23:47;;;;;;;19.75;9.38;;;;;;;-5.83;86.19;101274.94;6217975;23;20418;-79
2022/12/13 03:26:19;;;;;;;23.70;12.15;;;;;;;-5.84;86.31;101277.84;6218675;22;20454;-78
2022/12/13 03:28:46;;;;;;;19.45;10.88;;;;;;;-5.81;86.00;101277.97;6219977;22;20089;-79
2022/12/13 03:31:12;;;;;;;19.67;10.68;;;;;;;-5.81;86.18;101285.00;6218628;23;20080;-78
2022/12/13 03:33:39;;;;;;;26.65;11.00;;;;;;;-5.80;86.01;101274.31;6220719;23;20498;-79
2022/12/13 03:36:07;;;;;;;24.08;10.77;;;;;;;-5.76;86.24;101274.44;6220242;23;20023;-79
2022/12/13 03:38:34;;;;;;;23.77;10.63;;;;;;;-5.76;85.80;101284.81;6218977;23;20021;-80
2022/12/13 03:41:04;;;;;;;18.42;9.48;;;;;;;-5.75;86.00;101276.72;6220196;22;20020;-81
2022/12/13 03:43:31;;;;;;;21.73;10.25;;;;;;;-5.75;85.88;101281.13;6220765;23;20019;-79
2022/12/13 03:46:00;;;;;;;23.10;9.52;;;;;;;-5.76;85.66;101280.38;6194145;23;20027;-79
2022/12/13 03:48:26;;;;;;;21.02;11.23;;;;;;;-5.80;85.63;101274.31;6221130;22;20072;-79
2022/12/13 03:50:54;;;;;;;24.05;11.25;;;;;;;-5.83;85.50;101274.94;6219357;23;20072;-79
2022/12/13 03:53:21;;;;;;;24.48;11.57;;;;;;;-5.87;85.72;101274.03;6219915;22;20544;-79
2022/12/13 03:56:04;;;;;;;18.80;9.77;;;;;;;-5.92;85.57;101271.66;6220491;23;20022;-79
2022/12/13 03:58:33;;;;;;;23.50;11.23;;;;;;;-5.92;85.49;101276.84;6221111;22;20024;-79
2022/12/13 04:01:07;;;;;;;;;;;;;;;-5.97;85.32;101271.06;6219596;23;20013;-77
2022/12/13 04:03:35;;;;;;;22.35;9.23;;;;;;;-6.07;85.28;101269.63;6220995;22;20355;-78
2022/12/13 04:06:03;;;;;;;21.52;10.65;;;;;;;-6.13;85.33;101279.41;6219008;23;20017;-79
2022/12/13 04:08:29;;;;;;;20.98;10.48;;;;;;;-6.21;85.54;101266.50;6220435;22;20036;-79
2022/12/13 04:10:56;;;;;;;20.85;11.98;;;;;;;-6.24;85.46;101274.88;6221037;22;20024;-79
2022/12/13 04:13:31;;;;;;;22.63;11.05;;;;;;;-6.28;85.59;101274.00;6220501;22;20017;-79
2022/12/13 04:15:59;;;;;;;19.35;10.88;;;;;;;-6.36;85.68;101272.94;6246709;22;20017;-77
2022/12/13 04:18:26;;;;;;;19.77;11.40;;;;;;;-6.43;85.36;101272.69;6224888;23;20020;-78
2022/12/13 04:20:53;;;;;;;19.45;10.68;;;;;;;-6.49;85.67;101274.69;6226862;23;20020;-78
2022/12/13 04:23:19;;;;;;;22.63;10.98;;;;;;;-6.50;85.96;101283.53;6225999;23;20411;-79
2022/12/13 04:25:46;;;;;;;17.83;10.82;;;;;;;-6.52;85.88;101280.50;6223872;23;20025;-79
2022/12/13 04:28:12;;;;;;;16.55;10.57;;;;;;;-6.49;85.79;101274.69;6223261;23;20086;-79
2022/12/13 04:30:51;;;;;;;22.23;10.68;;;;;;;-6.45;85.65;101278.19;6226490;22;20021;-79
2022/12/13 04:33:21;;;;;;;21.73;10.50;;;;;;;-6.45;85.50;101267.06;6224647;22;20024;-79
2022/12/13 04:35:48;;;;;;;22.92;11.35;;;;;;;-6.43;85.77;101270.88;6223945;23;20021;-79
2022/12/13 04:38:15;;;;;;;21.35;10.13;;;;;;;-6.42;85.41;101271.63;6224769;22;20017;-79
2022/12/13 04:40:41;;;;;;;19.58;9.80;;;;;;;-6.44;85.73;101263.41;6223558;23;20021;-79
2022/12/13 04:43:08;;;;;;;22.13;10.93;;;;;;;-6.44;85.88;101268.59;6218698;23;20025;-79
2022/12/13 04:45:35;;;;;;;23.90;11.05;;;;;;;-6.44;85.90;101266.75;6218714;23;20021;-79
2022/12/13 04:48:01;;;;;;;18.65;11.25;;;;;;;-6.46;85.82;101265.56;6218339;23;20021;-79
2022/12/13 04:50:28;;;;;;;29.00;10.45;;;;;;;-6.47;86.01;101264.03;6220457;23;20076;-79
2022/12/13 04:52:54;;;;;;;16.75;9.80;;;;;;;-6.50;85.70;101252.47;6219904;22;20013;-79
2022/12/13 04:55:21;;;;;;;19.42;10.20;;;;;;;-6.48;86.26;101259.91;6220163;23;20044;-79
2022/12/13 04:57:48;;;;;;;20.33;9.85;;;;;;;-6.52;85.82;101256.44;6220423;23;20020;-79
2022/12/13 05:00:15;;;;;;;18.38;10.25;;;;;;;-6.53;85.87;101263.44;6218572;23;20124;-79
2022/12/13 05:02:42;;;;;;;23.42;10.30;;;;;;;-6.53;86.12;101253.06;6218622;23;20027;-79
2022/12/13 05:05:09;;;;;;;18.08;9.10;;;;;;;-6.52;85.99;101254.59;6220138;22;20068;-79
2022/12/13 05:07:37;;;;;;;16.15;9.15;;;;;;;-6.53;86.31;101250.50;6193057;23;20017;-79
2022/12/13 05:10:08;;;;;;;24.50;10.32;;;;;;;-6.52;86.59;101246.81;6220253;22;20021;-81
2022/12/13 05:12:35;;;;;;;16.58;9.15;;;;;;;-6.50;86.26;101244.69;6218587;23;20084;-79
2022/12/13 05:15:02;;;;;;;18.40;9.60;;;;;;;-6.50;86.25;101247.28;6220077;22;20021;-79
2022/12/13 05:17:29;;;;;;;18.90;9.38;;;;;;;-6.51;86.47;101238.00;6220074;23;20023;-78
2022/12/13 05:19:55;;;;;;;26.08;11.10;;;;;;;-6.53;86.41;101232.34;6219152;23;20018;-79
2022/12/13 05:22:22;;;;;;;26.45;10.63;;;;;;;-6.53;86.33;101229.00;6219429;23;20462;-80
2022/12/13 05:24:48;;;;;;;24.75;10.80;;;;;;;-6.49;86.44;101225.47;6220436;23;20028;-80
2022/12/13 05:27:15;;;;;;;25.98;10.88;;;;;;;-6.50;86.28;101233.56;6220041;22;20025;-79
2022/12/13 05:29:55;;;;;;;18.77;10.68;;;;;;;-6.63;86.06;101224.16;6220519;22;20043;-79
2022/12/13 05:32:37;;;;;;;21.48;10.18;;;;;;;-6.68;86.27;101232.09;6220573;22;20462;-79
2022/12/13 05:35:16;;;;;;;24.58;11.30;;;;;;;-6.70;86.18;101234.25;6217850;23;20087;-80
2022/12/13 05:37:52;;;;;;;18.17;9.57;;;;;;;-6.71;85.89;101230.88;6220397;22;20023;-80
2022/12/13 05:40:21;;;;;;;;;;;;;;;-6.70;85.91;101221.28;6219269;23;20072;-80
2022/12/13 05:42:48;;;;;;;17.50;9.05;;;;;;;-6.72;85.83;101226.78;6219384;23;19920;-80
2022/12/13 05:45:16;;;;;;;20.95;10.48;;;;;;;-6.74;85.83;101226.34;6218337;23;20025;-80
2022/12/13 05:47:43;;;;;;;17.80;9.93;;;;;;;-6.76;85.90;101228.47;6220246;22;20509;-80
2022/12/13 05:50:10;;;;;;;25.05;10.45;;;;;;;-6.78;85.30;101223.59;6219375;22;20096;-80
2022/12/13 05:52:37;;;;;;;16.83;10.50;;;;;;;-6.82;85.80;101220.13;6220063;22;20013;-80
2022/12/13 05:55:04;;;;;;;17.90;9.30;;;;;;;-6.79;85.26;101221.31;6220185;22;20535;-80
2022/12/13 05:57:31;;;;;;;19.52;10.00;;;;;;;-6.78;85.79;101220.25;6220507;22;20072;-79
2022/12/13 05:59:59;;;;;;;21.67;10.18;;;;;;;-6.82;85.48;101219.38;6219976;22;20077;-80
2022/12/13 06:02:27;;;;;;;24.23;10.75;;;;;;;-6.83;85.57;101223.78;6220481;22;20017;-80
2022/12/13 06:04:53;;;;;;;22.50;10.68;;;;;;;-6.81;85.74;101220.91;6219620;22;20017;-80
2022/12/13 06:07:20;;;;;;;21.20;10.20;;;;;;;-6.80;85.68;101225.75;6218378;23;20013;-80
2022/12/13 06:09:46;;;;;;;19.25;10.02;;;;;;;-6.72;85.90;101229.38;6218801;23;20017;-79
2022/12/13 06:12:15;;;;;;;21.40;11.15;;;;;;;-6.66;85.56;101230.72;6218286;23;20039;-79
2022/12/13 06:14:57;;;;;;;24.08;10.27;;;;;;;-6.64;85.17;101233.00;6220378;23;20024;-79
2022/12/13 06:17:36;;;;;;;20.33;10.30;;;;;;;-6.70;85.43;101232.41;6219900;23;20021;-79
2022/12/13 06:20:05;;;;;;;22.65;10.98;;;;;;;-6.72;84.92;101226.78;6219054;22;20052;-79
2022/12/13 06:22:53;;;;;;;20.90;10.15;;;;;;;-6.73;85.09;101220.09;6220554;22;20071;-79
2022/12/13 06:25:19;;;;;;;18.52;10.65;;;;;;;-6.74;85.18;101226.34;6218349;23;20431;-79
2022/12/13 06:27:58;;;;;;;21.38;9.65;;;;;;;-6.70;85.35;101223.88;6220989;23;20183;-79
2022/12/13 06:30:30;;;;;;;24.48;10.52;;;;;;;-6.68;85.04;101219.91;6220649;22;20017;-79
2022/12/13 06:32:56;;;;;;;19.02;10.55;;;;;;;-6.66;85.41;101222.19;6218685;23;20882;-79
2022/12/13 06:35:23;;;;;;;21.42;11.43;;;;;;;-6.69;85.08;101218.41;6220809;22;20395;-79
2022/12/13 06:37:54;;;;;;;20.20;10.52;;;;;;;-6.68;85.51;101214.75;6225694;22;20080;-79
2022/12/13 06:40:27;;;;;;;21.05;11.57;;;;;;;-6.68;85.26;101213.97;6224203;22;20064;-79
2022/12/13 06:42:54;;;;;;;19.65;10.88;;;;;;;-6.73;85.65;101213.06;6226345;23;20016;-79
2022/12/13 06:45:21;;;;;;;22.88;10.90;;;;;;;-6.78;85.49;101210.66;6227192;23;20579;-79
2022/12/13 06:47:47;;;;;;;22.15;10.50;;;;;;;-6.78;85.56;101210.66;6244830;22;20333;-80
2022/12/13 06:50:14;;;;;;;19.77;9.32;;;;;;;-6.77;85.33;101214.75;6220286;23;20013;-79
2022/12/13 06:52:40;;;;;;;24.52;9.30;;;;;;;-6.79;85.20;101219.50;6218307;23;20028;-78
2022/12/13 06:55:07;;;;;;;24.23;10.27;;;;;;;-6.81;85.53;101220.91;6219698;22;20017;-79
2022/12/13 06:57:34;;;;;;;26.90;10.52;;;;;;;-6.81;85.52;101218.31;6218487;23;20013;-79
2022/12/13 07:00:02;;;;;;;17.48;9.13;;;;;;;-6.83;85.70;101223.78;6217764;23;20017;-79
2022/12/13 07:02:29;;;;;;;23.30;11.57;;;;;;;-6.83;85.13;101228.22;6192168;23;20033;-79
2022/12/13 07:04:56;;;;;;;20.15;11.40;;;;;;;-6.84;85.03;101229.28;6221096;22;20027;-79
2022/12/13 07:07:24;;;;;;;19.55;10.70;;;;;;;-6.82;85.29;101229.72;6220777;22;20104;-79
2022/12/13 07:09:51;;;;;;;21.73;11.38;;;;;;;-6.86;85.77;101229.59;6221919;22;20447;-80
2022/12/13 07:12:19;;;;;;;22.88;11.35;;;;;;;-6.87;85.46;101233.25;6221419;22;20073;-80
2022/12/13 07:14:46;;;;;;;20.75;11.20;;;;;;;-6.87;85.20;101232.50;6218724;23;20056;-80
2022/12/13 07:17:12;;;;;;;29.30;12.02;;;;;;;-6.86;85.36;101234.00;6220135;23;20417;-80
2022/12/13 07:19:59;;;;;;;28.75;11.35;;;;;;;-6.89;85.73;101229.44;6219827;23;20088;-80
2022/12/13 07:22:27;;;;;;;26.10;12.32;;;;;;;-6.88;85.69;101236.16;6221744;23;20033;-80
2022/12/13 07:24:53;;;;;;;32.20;12.77;;;;;;;-6.90;85.53;101233.09;6220218;23;20075;-80
2022/12/13 07:27:20;;;;;;;29.48;13.77;;;;;;;-6.89;85.59;101232.03;6220078;23;20494;-80
2022/12/13 07:29:46;;;;;;;32.35;12.98;;;;;;;-6.92;85.66;101241.19;6221800;22;20099;-80
2022/12/13 07:32:13;;;;;;;31.50;14.80;;;;;;;-6.92;85.96;101238.59;6220620;22;20437;-80
2022/12/13 07:34:39;;;;;;;27.73;13.60;;;;;;;-6.92;85.70;101241.19;6219474;23;20458;-78
2022/12/13 07:37:08;;;;;;;28.63;12.52;;;;;;;-6.90;85.70;101246.03;6219704;23;20510;-78
2022/12/13 07:39:54;;;;;;;23.40;11.73;;;;;;;-6.91;85.83;101253.06;6221905;22;20098;-79
2022/12/13 07:42:29;;;;;;;25.38;11.43;;;;;;;-6.91;86.24;101250.47;6220140;23;20024;-79
2022/12/13 07:44:55;;;;;;;27.33;12.25;;;;;;;-6.98;85.47;101247.59;6222126;23;20068;-79
2022/12/13 07:47:22;;;;;;;27.67;11.35;;;;;;;-7.04;85.67;101250.63;6221847;22;20076;-79
2022/12/13 07:49:48;;;;;;;23.23;10.88;;;;;;;-7.01;86.04;101255.19;6221957;22;20418;-79
2022/12/13 07:52:16;;;;;;;20.27;10.60;;;;;;;-7.00;86.10;101256.72;6221768;22;20025;-79
2022/12/13 07:54:42;;;;;;;26.27;10.82;;;;;;;-6.98;86.10;101257.94;6220263;23;20021;-79
2022/12/13 07:57:09;;;;;;;18.45;10.38;;;;;;;-6.96;86.13;101255.81;6220253;23;20023;-79
2022/12/13 07:59:35;;;;;;;21.08;10.73;;;;;;;-6.94;86.08;101258.84;6222150;22;20435;-77
2022/12/13 08:02:02;;;;;;;26.48;11.32;;;;;;;-6.92;86.47;101256.72;6221335;22;20018;-79
2022/12/13 08:04:28;;;;;;;25.17;10.77;;;;;;;-6.91;86.31;101263.41;6222170;22;20575;-82
2022/12/13 08:07:10;;;;;;;27.35;10.45;;;;;;;-6.93;86.50;101260.38;6221090;23;20421;-77
2022/12/13 08:09:37;;;;;;;23.85;10.90;;;;;;;-6.95;86.27;101265.09;6221127;23;20450;-79
2022/12/13 08:12:04;;;;;;;18.42;10.05;;;;;;;-6.90;85.97;101264.16;6222124;22;20024;-79
2022/12/13 08:14:31;;;;;;;22.75;11.32;;;;;;;-6.84;86.27;101265.53;6220979;22;20071;-80
2022/12/13 08:16:58;;;;;;;19.65;10.50;;;;;;;-6.78;86.21;101272.03;6195003;23;20068;-80
2022/12/13 08:19:24;;;;;;;24.50;9.95;;;;;;;-6.74;86.72;101268.53;6221842;23;20046;-79
2022/12/13 08:21:51;;;;;;;24.73;10.98;;;;;;;-6.75;86.68;101271.41;6220360;23;20013;-79
2022/12/13 08:24:23;;;;;;;19.67;11.60;;;;;;;-6.73;86.14;101267.44;6221698;22;20021;-78
2022/12/13 08:26:53;;;;;;;22.63;11.60;;;;;;;-6.70;86.78;101273.09;6221999;22;20009;-80
2022/12/13 08:29:19;;;;;;;23.52;11.90;;;;;;;-6.67;86.43;101265.47;6194334;23;20104;-79
2022/12/13 08:31:47;;;;;;;25.88;13.40;;;;;;;-6.63;86.91;101271.53;6219569;23;20021;-79
2022/12/13 08:34:15;;;;;;;34.95;14.07;;;;;;;-6.60;86.94;101268.34;6221801;23;20021;-79
2022/12/13 08:36:41;;;;;;;30.05;14.00;;;;;;;-6.55;86.96;101278.53;6220318;23;20014;-80
2022/12/13 08:39:07;;;;;;;27.70;14.07;;;;;;;-6.52;86.75;101275.31;6222552;23;20017;-83
2022/12/13 08:41:34;;;;;;;30.73;13.65;;;;;;;-6.49;87.12;101269.53;6222014;22;20084;-80
2022/12/13 08:44:05;;;;;;;24.88;14.05;;;;;;;-6.44;86.90;101273.78;6221941;22;20033;-79
2022/12/13 08:46:32;;;;;;;27.50;13.27;;;;;;;-6.40;87.33;101275.41;6225251;22;20013;-78
2022/12/13 08:48:59;;;;;;;35.72;15.38;;;;;;;-6.35;87.39;101281.50;6226067;23;20466;-79
2022/12/13 08:51:26;;;;;;;29.48;14.60;;;;;;;-6.31;87.89;101280.56;6199902;23;20052;-78
2022/12/13 08:54:00;;;;;;;29.63;15.20;;;;;;;-6.25;87.85;101275.97;6225131;23;20036;-79
2022/12/13 08:56:36;;;;;;;24.58;12.93;;;;;;;-6.20;87.94;101271.38;6229144;22;20027;-79
2022/12/13 08:59:03;;;;;;;30.48;13.55;;;;;;;-6.18;88.12;101269.22;6225411;23;20458;-77
2022/12/13 09:01:30;;;;;;;28.27;13.63;;;;;;;-6.15;88.31;101273.03;6227165;22;20024;-78
2022/12/13 09:03:56;;;;;;;34.00;14.57;;;;;;;-6.09;88.27;101272.53;6223730;23;20021;-78
2022/12/13 09:06:23;;;;;;;27.77;14.00;;;;;;;-6.04;88.57;101278.63;6221917;23;20017;-78
2022/12/13 09:08:53;;;;;;;28.17;14.07;;;;;;;-5.99;88.95;101278.41;6221455;22;20013;-79
2022/12/13 09:11:20;;;;;;;28.17;14.25;;;;;;;-5.94;89.41;101284.16;6219721;23;20021;-79
2022/12/13 09:14:05;;;;;;;30.85;14.23;;;;;;;-5.89;89.15;101278.81;6220681;22;20091;-79
2022/12/13 09:16:39;;;;;;;31.15;14.82;;;;;;;-5.89;89.53;101276.22;6221447;22;20013;-79
2022/12/13 09:19:16;;;;;;;34.85;15.20;;;;;;;-5.86;89.43;101280.00;6219839;23;20452;-79
2022/12/13 09:21:52;;;;;;;38.08;14.43;;;;;;;-5.81;89.87;101279.81;6219846;23;20013;-78
2022/12/13 09:24:28;;;;;;;35.65;15.45;;;;;;;-5.78;89.99;101282.53;6245333;22;20025;-79
2022/12/13 09:27:05;;;;;;;26.48;12.77;;;;;;;-5.71;90.16;101284.63;6218897;23;20017;-79
2022/12/13 09:29:35;;;;;;;32.38;15.07;;;;;;;-5.65;90.42;101288.56;6220069;23;20033;-78
2022/12/13 09:32:01;;;;;;;32.88;14.43;;;;;;;-5.65;90.72;101288.56;6220566;22;20016;-79
2022/12/13 09:34:28;;;;;;;33.17;15.57;;;;;;;-5.62;90.38;101279.38;6221276;23;20048;-79
2022/12/13 09:36:55;;;;;;;30.90;14.45;;;;;;;-5.63;90.74;101285.66;6220980;22;20013;-79
2022/12/13 09:39:28;;;;;;;34.78;15.00;;;;;;;-5.62;90.72;101282.75;6221056;22;20013;-79
2022/12/13 09:41:58;;;;;;;33.65;15.73;;;;;;;-5.60;90.95;101288.38;6220410;22;20446;-79
2022/12/13 09:44:37;;;;;;;32.58;15.15;;;;;;;-5.55;91.21;101277.03;6221095;22;20024;-79
2022/12/13 09:47:18;;;;;;;35.40;14.90;;;;;;;-5.53;91.28;101270.44;6220904;23;20020;-79
2022/12/13 09:49:51;;;;;;;38.33;15.25;;;;;;;-5.46;91.38;101270.69;6219768;23;20100;-79
2022/12/13 09:52:22;;;;;;;34.47;15.10;;;;;;;-5.44;91.87;101273.72;6194778;23;20027;-79
2022/12/13 09:54:53;;;;;;;29.05;14.85;;;;;;;-5.37;92.37;101270.63;6221335;22;20021;-79
2022/12/13 09:57:24;;;;;;;31.95;15.27;;;;;;;-5.31;92.69;101269.34;6220694;23;20016;-79
2022/12/13 09:59:59;;;;;;;36.53;15.65;;;;;;;-5.24;93.18;101261.06;6219572;23;20087;-79
2022/12/13 10:02:30;;;;;;;35.67;15.95;;;;;;;-5.23;93.40;101258.16;6219304;23;20021;-79
2022/12/13 10:05:13;;;;;;;28.90;15.25;;;;;;;-5.19;93.77;101253.81;6221431;23;20023;-79
2022/12/13 10:07:51;;;;;;;38.70;16.25;;;;;;;-5.16;94.22;101255.75;6221001;22;20013;-79
2022/12/13 10:10:18;;;;;;;29.48;14.75;;;;;;;-5.08;94.59;101247.13;6218986;23;20462;-79
2022/12/13 10:12:53;;;;;;;31.70;15.25;;;;;;;-5.00;94.64;101242.19;6219444;23;20120;-81
2022/12/13 10:15:21;;;;;;;32.60;15.93;;;;;;;-4.96;95.07;101248.25;6221766;22;20451;-79
2022/12/13 10:17:49;;;;;;;35.63;17.10;;;;;;;-4.91;95.58;101250.66;6220540;22;20109;-79
2022/12/13 10:20:27;;;;;;;35.03;16.02;;;;;;;-4.88;95.73;101242.97;6221126;22;20791;-79
2022/12/13 10:22:54;;;;;;;33.78;16.13;;;;;;;-4.85;96.14;101234.53;6194261;23;20013;-79
2022/12/13 10:25:46;;;;;;;31.92;14.77;;;;;;;-4.80;96.16;101230.97;6219668;23;20080;-80
2022/12/13 10:28:23;;;;;;;30.55;16.20;;;;;;;-4.78;96.21;101228.78;6219688;23;20017;-81
2022/12/13 10:30:49;;;;;;;32.25;15.57;;;;;;;-4.73;96.52;101224.16;6222432;22;20733;-83
2022/12/13 10:33:23;;;;;;;31.02;15.63;;;;;;;-4.66;96.83;101222.84;6219483;23;20013;-77
2022/12/13 10:36:33;;;;;;;35.88;16.75;;;;;;;-4.59;97.10;101226.44;6194543;23;20025;-79
2022/12/13 10:39:01;;;;;;;26.70;15.32;;;;;;;-4.52;97.42;101223.31;6127496;23;20523;-80
2022/12/13 10:41:36;;;;;;;37.95;17.40;;;;;;;-4.47;97.33;101226.44;6127850;23;20029;-77
2022/12/13 10:44:23;;;;;;;42.20;19.33;;;;;;;-4.41;97.48;101214.00;6104136;23;20528;-78
2022/12/13 10:47:09;;;;;;;36.65;17.30;;;;;;;-4.32;97.68;101217.22;6128142;23;20026;-78
2022/12/13 10:49:54;;;;;;;38.10;17.38;;;;;;;-4.25;97.53;101209.63;6128779;23;20019;-78
2022/12/13 10:52:36;;;;;;;36.67;18.85;;;;;;;-4.16;97.97;101212.88;6103524;23;20102;-78
2022/12/13 10:55:34;;;;;;;41.63;18.25;;;;;;;-4.06;98.13;101215.03;6127692;23;20023;-78
2022/12/13 10:58:06;;;;;;;40.17;18.67;;;;;;;-4.02;97.94;101207.34;6128228;23;20093;-78
2022/12/13 11:00:46;;;;;;;35.15;18.10;;;;;;;-3.98;97.90;101210.00;6103899;23;20540;-78
2022/12/13 11:03:28;;;;;;;33.83;17.83;;;;;;;-3.92;98.00;101211.28;6127579;23;20050;-79
2022/12/13 11:06:21;;;;;;;37.33;18.20;;;;;;;-3.87;98.07;101203.25;6129144;23;20022;-79
2022/12/13 11:08:49;;;;;;;34.75;17.77;;;;;;;-3.80;98.07;101206.06;6132727;23;20027;-79
2022/12/13 11:11:25;;;;;;;42.45;18.35;;;;;;;-3.76;97.79;101202.47;6132155;23;20459;-79
2022/12/13 11:13:54;;;;;;;33.60;17.40;;;;;;;-3.71;97.94;101207.44;6215170;23;20418;-79
2022/12/13 11:16:39;;;;;;;44.70;18.42;;;;;;;-3.63;98.02;101202.44;6227606;22;20013;-78
2022/12/13 11:19:18;;;;;;;38.97;17.58;;;;;;;-3.58;97.87;101200.34;6228119;23;20021;-78
2022/12/13 11:21:48;;;;;;;34.08;17.67;;;;;;;-3.53;98.15;101191.53;6229574;23;20591;-79
2022/12/13 11:24:23;;;;;;;35.97;17.63;;;;;;;-3.49;98.31;101184.56;6225416;22;20013;-79
2022/12/13 11:26:59;;;;;;;36.55;17.48;;;;;;;-3.42;98.14;101195.19;6221623;23;20023;-78
2022/12/13 11:29:47;;;;;;;34.58;17.17;;;;;;;-3.38;97.75;101198.63;6222220;22;20498;-78
2022/12/13 11:32:39;;;;;;;30.17;15.50;;;;;;;-3.33;97.71;101198.41;6219083;23;20447;-78